createdAt,value
2022-11-17T11:36:07.352Z,1.30
2022-11-17T11:37:08.529Z,7.90
2022-11-17T11:38:08.432Z,7.60
2022-11-17T11:39:08.748Z,7.20
2022-11-17T11:40:08.393Z,7.20
2022-11-17T11:41:08.309Z,8.00
2022-11-17T11:42:08.516Z,7.10
2022-11-17T11:43:08.309Z,6.30
2022-11-17T11:44:09.172Z,6.70
2022-11-17T11:45:08.582Z,5.90
2022-11-17T11:46:08.233Z,5.30
2022-11-17T11:47:08.938Z,5.00
2022-11-17T11:48:08.473Z,4.40
2022-11-17T11:49:08.471Z,4.30
2022-11-17T11:50:08.183Z,4.30
2022-11-17T11:51:08.169Z,3.90
2022-11-17T11:52:08.138Z,3.70
2022-11-17T11:53:09.137Z,3.70
2022-11-17T11:54:08.404Z,4.10
2022-11-17T11:55:08.115Z,3.70
2022-11-17T11:56:08.105Z,3.70
2022-11-17T11:57:08.096Z,3.60
2022-11-17T11:58:08.081Z,3.40
2022-11-17T11:59:08.074Z,3.10
2022-11-17T12:00:08.149Z,3.40
2022-11-17T12:01:08.035Z,3.40
2022-11-17T12:02:08.071Z,2.90
2022-11-17T12:03:08.077Z,2.80
2022-11-17T12:04:08.207Z,2.90
2022-11-17T12:05:09.054Z,2.90
2022-11-17T12:06:07.994Z,2.80
2022-11-17T12:07:08.022Z,3.00
2022-11-17T12:08:10.778Z,3.40
2022-11-17T12:09:08.964Z,3.20
2022-11-17T12:10:07.988Z,3.50
2022-11-17T12:11:08.160Z,3.50
2022-11-17T12:12:07.943Z,3.50
2022-11-17T12:13:07.933Z,3.10
2022-11-17T12:14:07.918Z,3.10
2022-11-17T12:15:07.904Z,3.20
2022-11-17T12:16:07.913Z,3.20
2022-11-17T12:17:07.870Z,3.20
2022-11-17T12:18:07.858Z,3.10
2022-11-17T12:19:07.855Z,3.30
2022-11-17T12:20:10.931Z,3.30
